Accueil
METAR-TAF:

METAR-TAF

Aéroports :

Bombay, Inde

latitude: 19-05-53N, longitude: 072-50-02E, altitude: 4 m

Observation

Le bulletin a été fait il y a 12 heures et 34 minutes, à 13:00 UTC
Vent 6 kt de ouest/nord-ouest
Température 27°C
Humidité 45%
Pression 1014 hPa
Visibilité: 4000 m
fumée

METAR: VAJJ 211300Z 29006KT 4000 FU NSC 27/14 Q1014 NOSIG

Heure: 07:04 (01:34 UTC)


TAF: absent

Observations et prévisions météorologiques de plus de 4000 aéroports (messages METAR et TAF).

Les stations disponibles sont représentées par des disques jaunes et rouges sur la carte.

Passer la souris dessus pour voir le nom de la station.

Cliquer dessus pour voir les observations et prévisions météorologiques.

Pour changer de carte: cliquez sur les boutons verts avec une croix noire pour zoomer, sur le bouton vert avec un tiret pour effectuer un zoom arrière, ou sur les flèches vertes pour les cartes adjacentes.


METAR-TAF: